Time;durP1;ratioP1;P1;durP2;ratioP2;P2;SDS_P1;SDS_P2;PMS_P1;PMS_P2;Temp;Humidity;BMP_temperature;BMP_pressure;BME280_temperature;BME280_humidity;BME280_pressure;Samples;Min_cycle;Max_cycle;Signal;HPM_P1;HPM_P2
2022/06/05 00:01:40;;;;;;;2.47;0.83;;;;;;;20.72;91.49;100305.63;5053291;28;20509;-47
2022/06/05 00:04:24;;;;;;;0.60;0.50;;;;;;;20.82;91.27;100312.94;5053379;28;20534;-47
2022/06/05 00:06:50;;;;;;;0.50;0.30;;;;;;;20.97;89.96;100305.63;5053370;28;20447;-47
2022/06/05 00:09:55;;;;;;;0.40;0.20;;;;;;;20.48;92.71;100302.78;5053249;28;20446;-47
2022/06/05 00:12:38;;;;;;;0.50;0.37;;;;;;;20.56;92.65;100301.31;5051994;28;20451;-48
2022/06/05 00:15:05;;;;;;;0.40;0.30;;;;;;;20.27;94.26;100303.25;5052992;28;20887;-47
2022/06/05 00:17:31;;;;;;;0.43;0.30;;;;;;;20.50;93.52;100295.44;5053021;28;20490;-47
2022/06/05 00:19:58;;;;;;;0.40;0.30;;;;;;;20.63;92.81;100301.72;5052997;28;20516;-47
2022/06/05 00:22:25;;;;;;;0.70;0.70;;;;;;;20.70;92.38;100308.44;5052743;28;20455;-47
2022/06/05 00:24:51;;;;;;;0.50;0.50;;;;;;;20.48;93.67;100305.50;5052785;28;20467;-48
2022/06/05 00:27:38;;;;;;;1.67;1.57;;;;;;;20.47;94.31;100304.63;5052788;28;20451;-47
2022/06/05 00:30:11;;;;;;;0.40;0.30;;;;;;;20.36;94.73;100308.03;5052846;28;20472;-47
2022/06/05 00:32:42;;;;;;;0.60;0.40;;;;;;;20.53;93.85;100312.28;5040594;28;20447;-47
2022/06/05 00:35:12;;;;;;;0.40;0.20;;;;;;;20.43;94.83;100304.97;5052327;28;20502;-48
2022/06/05 00:38:17;;;;;;;0.40;0.30;;;;;;;20.50;95.27;100309.81;5052990;28;20478;-47
2022/06/05 00:41:05;;;;;;;0.60;0.50;;;;;;;20.57;94.72;100312.97;5043109;28;20447;-47
2022/06/05 00:43:31;;;;;;;0.50;0.40;;;;;;;20.68;94.07;100305.81;5051683;28;20504;-47
2022/06/05 00:45:58;;;;;;;0.50;0.50;;;;;;;20.43;95.77;100304.97;5052388;28;20567;-48
2022/06/05 00:48:25;;;;;;;2.97;1.60;;;;;;;20.49;95.59;100302.69;5052745;28;20501;-47
2022/06/05 00:50:52;;;;;;;0.40;0.27;;;;;;;20.33;96.25;100300.16;5052529;28;20795;-47
2022/06/05 00:53:18;;;;;;;0.40;0.30;;;;;;;20.36;96.69;100296.38;5052186;28;20477;-47
2022/06/05 00:55:51;;;;;;;0.50;0.33;;;;;;;20.48;96.10;100294.69;5052252;28;20482;-47
2022/06/05 00:58:18;;;;;;;0.40;0.20;;;;;;;20.27;97.13;100288.88;5052190;28;20930;-47
2022/06/05 01:00:53;;;;;;;0.60;0.50;;;;;;;20.24;97.89;100281.88;5052392;28;20504;-47
2022/06/05 01:03:22;;;;;;;0.40;0.30;;;;;;;20.24;97.56;100273.78;5040022;28;20488;-48
2022/06/05 01:05:50;;;;;;;0.50;0.33;;;;;;;20.36;97.14;100253.16;5052187;28;20497;-48
2022/06/05 01:08:17;;;;;;;0.40;0.20;;;;;;;20.30;96.96;100249.06;5052376;28;20453;-47
2022/06/05 01:11:06;;;;;;;0.40;0.30;;;;;;;20.44;96.78;100226.53;5047893;28;20809;-47
2022/06/05 01:13:41;;;;;;;0.80;0.70;;;;;;;20.47;96.66;100214.66;5052149;28;20479;-47
2022/06/05 01:16:28;;;;;;;0.80;0.80;;;;;;;20.31;96.86;100202.19;5052179;28;20470;-47
2022/06/05 01:19:00;;;;;;;2.60;1.60;;;;;;;20.19;97.61;100203.06;5052070;28;20494;-47
2022/06/05 01:21:45;;;;;;;0.40;0.30;;;;;;;20.20;97.69;100193.13;5051783;28;20486;-47
2022/06/05 01:24:36;;;;;;;0.40;0.20;;;;;;;20.23;97.54;100184.81;5052165;28;20443;-48
2022/06/05 01:27:07;;;;;;;0.70;0.60;;;;;;;20.26;97.56;100174.63;5051743;28;20451;-47
2022/06/05 01:29:40;;;;;;;0.40;0.23;;;;;;;20.17;97.73;100169.06;5052061;28;20471;-48
2022/06/05 01:32:28;;;;;;;0.40;0.20;;;;;;;20.14;97.83;100172.81;5051958;28;20455;-47
2022/06/05 01:34:59;;;;;;;1.13;1.13;;;;;;;20.18;98.08;100163.53;5051821;28;20889;-50
2022/06/05 01:37:37;;;;;;;0.53;0.53;;;;;;;20.10;98.48;100160.50;5051994;28;20536;-47
2022/06/05 01:40:13;;;;;;;1.20;0.90;;;;;;;20.20;97.89;100155.34;5051438;28;22017;-47
2022/06/05 01:42:51;;;;;;;0.60;0.50;;;;;;;20.28;97.36;100171.84;5043841;28;20458;-47
2022/06/05 01:45:29;;;;;;;0.50;0.40;;;;;;;20.23;97.26;100171.31;5051789;28;20486;-48
2022/06/05 01:47:59;;;;;;;0.40;0.20;;;;;;;20.23;97.12;100172.16;5055594;28;20470;-48
2022/06/05 01:50:39;;;;;;;0.40;0.30;;;;;;;20.24;96.59;100165.78;5055571;28;20454;-47
2022/06/05 01:53:15;;;;;;;0.40;0.30;;;;;;;20.25;96.69;100164.81;5055986;28;20450;-47
2022/06/05 01:55:51;;;;;;;0.80;0.77;;;;;;;20.20;96.58;100145.41;5055669;28;20502;-47
2022/06/05 01:58:23;;;;;;;0.40;0.30;;;;;;;20.10;97.25;100136.22;5055705;28;20535;-47
2022/06/05 02:00:54;;;;;;;0.50;0.40;;;;;;;20.00;97.54;100122.50;5055346;28;20501;-47
2022/06/05 02:03:26;;;;;;;1.33;0.80;;;;;;;20.02;97.06;100117.88;5056047;28;20512;-47
2022/06/05 02:05:57;;;;;;;0.83;0.60;;;;;;;19.94;97.62;100108.59;5055724;28;20979;-47
2022/06/05 02:08:32;;;;;;;2.73;0.70;;;;;;;19.93;97.46;100107.72;5055435;28;20485;-47
2022/06/05 02:11:13;;;;;;;0.40;0.30;;;;;;;19.82;97.85;100094.13;5049738;28;20496;-47
2022/06/05 02:13:39;;;;;;;0.50;0.40;;;;;;;19.87;98.00;100069.50;5055656;28;20500;-47
2022/06/05 02:16:08;;;;;;;0.40;0.30;;;;;;;19.80;98.07;100048.38;5054995;28;20501;-47
2022/06/05 02:18:35;;;;;;;0.47;0.33;;;;;;;19.78;98.22;100025.19;5037585;28;20549;-49
2022/06/05 02:21:03;;;;;;;0.47;0.33;;;;;;;19.73;98.16;100012.00;5042333;28;20502;-47
2022/06/05 02:23:34;;;;;;;3.83;3.60;;;;;;;19.78;97.88;99982.88;5054936;28;20450;-49
2022/06/05 02:26:05;;;;;;;0.97;0.97;;;;;;;19.76;97.82;99974.03;5055380;28;20520;-47
2022/06/05 02:28:33;;;;;;;0.50;0.40;;;;;;;19.75;97.94;99944.47;5055060;28;20492;-47
2022/06/05 02:31:30;;;;;;;0.50;0.40;;;;;;;19.76;97.73;99930.88;5054972;28;20454;-50
2022/06/05 02:34:10;;;;;;;0.50;0.30;;;;;;;19.74;97.55;99938.22;5055118;28;20455;-47
2022/06/05 02:37:12;;;;;;;0.40;0.30;;;;;;;19.77;97.42;99934.44;5041785;28;20976;-48
2022/06/05 02:39:56;;;;;;;0.50;0.50;;;;;;;19.69;97.41;99936.81;5048611;28;20824;-47
2022/06/05 02:42:36;;;;;;;0.40;0.30;;;;;;;19.75;97.08;99939.09;5052349;28;21021;-48
2022/06/05 02:45:51;;;;;;;0.40;0.20;;;;;;;19.68;97.60;99948.56;5054365;28;20486;-47
2022/06/05 02:48:28;;;;;;;0.50;0.40;;;;;;;19.69;97.44;99961.09;4973828;28;21018;-47
2022/06/05 02:51:19;;;;;;;0.40;0.30;;;;;;;19.63;97.71;99959.69;4973255;28;20458;-49
2022/06/05 02:53:52;;;;;;;0.40;0.20;;;;;;;19.68;97.15;99968.31;5025697;28;20454;-47
2022/06/05 02:56:19;;;;;;;2.47;1.40;;;;;;;19.52;97.64;99984.69;5054546;28;20506;-47
2022/06/05 02:58:47;;;;;;;0.40;0.30;;;;;;;19.61;97.57;99991.31;5054371;28;20486;-47
2022/06/05 03:04:00;;;;;;;0.40;0.20;;;;;;;19.51;97.65;99982.97;5054765;28;20451;-47
2022/06/05 03:06:31;;;;;;;0.93;0.93;;;;;;;19.39;97.97;99966.78;5054483;28;20905;-47
2022/06/05 03:08:57;;;;;;;1.80;0.60;;;;;;;19.44;97.50;99965.47;5053294;28;20451;-49
2022/06/05 03:11:24;;;;;;;0.53;0.50;;;;;;;19.35;98.10;99963.47;5052532;28;20531;-47
2022/06/05 03:13:51;;;;;;;0.50;0.30;;;;;;;19.31;98.76;99959.22;5053983;28;20504;-47
2022/06/05 03:16:18;;;;;;;0.40;0.30;;;;;;;19.47;97.74;99970.69;5053813;28;20471;-47
2022/06/05 03:18:44;;;;;;;0.40;0.30;;;;;;;19.32;98.31;99981.66;5053754;28;20553;-47
2022/06/05 03:21:11;;;;;;;0.70;0.70;;;;;;;19.32;98.12;99976.25;5036252;28;20483;-48
2022/06/05 03:23:38;;;;;;;0.70;0.70;;;;;;;19.32;98.39;99995.13;5054201;28;20450;-47
2022/06/05 03:26:08;;;;;;;0.50;0.40;;;;;;;19.33;98.01;100013.91;5053940;28;20477;-47
2022/06/05 03:28:41;;;;;;;0.50;0.40;;;;;;;19.34;97.80;100026.44;5053788;28;21022;-48
2022/06/05 03:31:09;;;;;;;0.40;0.20;;;;;;;19.37;97.82;100037.00;5053818;28;21030;-47
2022/06/05 03:33:37;;;;;;;1.03;0.93;;;;;;;19.30;97.66;100042.91;5053904;28;20947;-47
2022/06/05 03:36:12;;;;;;;0.47;0.30;;;;;;;19.32;97.42;100051.75;5044012;28;20463;-47
2022/06/05 03:38:39;;;;;;;0.50;0.33;;;;;;;19.39;97.48;100053.06;5052706;28;20501;-47
2022/06/05 03:41:08;;;;;;;0.40;0.40;;;;;;;19.29;97.72;100058.22;5053694;28;20483;-47
2022/06/05 03:43:37;;;;;;;0.40;0.20;;;;;;;19.27;97.97;100062.84;5053540;28;20951;-47
2022/06/05 03:46:08;;;;;;;0.93;0.93;;;;;;;19.44;97.75;100073.31;5053398;28;20536;-47
2022/06/05 03:48:36;;;;;;;0.73;0.73;;;;;;;19.24;98.33;100087.31;5053477;28;20927;-47
2022/06/05 03:51:11;;;;;;;0.40;0.20;;;;;;;19.33;98.29;100104.72;5046923;28;21003;-51
2022/06/05 03:53:39;;;;;;;0.40;0.30;;;;;;;19.33;98.61;100116.34;5053688;28;20453;-47
2022/06/05 03:56:19;;;;;;;0.40;0.30;;;;;;;19.30;98.42;100129.16;5053483;28;20467;-47
2022/06/05 03:58:46;;;;;;;0.40;0.30;;;;;;;19.64;96.77;100146.66;5053164;28;20833;-47
2022/06/05 04:01:16;;;;;;;0.60;0.57;;;;;;;19.87;95.35;100161.22;5052844;28;20932;-47
2022/06/05 04:03:44;;;;;;;0.50;0.50;;;;;;;19.93;94.67;100150.03;5053251;28;20447;-47
2022/06/05 04:06:18;;;;;;;0.50;0.40;;;;;;;19.98;94.00;100158.66;5053166;28;20481;-47
2022/06/05 04:08:45;;;;;;;0.73;0.73;;;;;;;20.04;94.17;100167.22;5052663;28;20476;-48
2022/06/05 04:11:16;;;;;;;2.43;0.83;;;;;;;20.11;93.39;100173.88;5045086;28;20478;-47
2022/06/05 04:13:44;;;;;;;0.40;0.30;;;;;;;20.13;92.87;100184.56;5053307;28;20865;-47
2022/06/05 04:16:20;;;;;;;1.73;1.23;;;;;;;20.20;93.29;100185.03;5040007;28;20533;-47
2022/06/05 04:18:49;;;;;;;0.50;0.40;;;;;;;20.24;92.49;100187.38;5052899;28;20493;-47
2022/06/05 04:21:19;;;;;;;0.60;0.60;;;;;;;20.17;92.66;100196.91;5052881;28;20820;-48
2022/06/05 04:23:45;;;;;;;0.40;0.30;;;;;;;20.16;92.95;100197.00;5052892;28;20884;-48
2022/06/05 04:26:16;;;;;;;0.87;0.87;;;;;;;20.13;92.96;100212.44;5052849;28;20463;-48
2022/06/05 04:28:43;;;;;;;0.50;0.40;;;;;;;20.16;93.95;100200.56;5052456;28;20450;-47
2022/06/05 04:31:31;;;;;;;0.50;0.30;;;;;;;20.21;94.33;100195.72;5043280;28;20516;-47
2022/06/05 04:34:01;;;;;;;0.50;0.40;;;;;;;20.16;95.54;100188.91;5050708;28;20503;-50
2022/06/05 04:36:28;;;;;;;0.73;0.73;;;;;;;20.13;97.29;100184.56;5035448;28;20496;-48
2022/06/05 04:38:55;;;;;;;0.50;0.30;;;;;;;20.22;98.91;100194.72;5039393;28;20514;-48
2022/06/05 04:41:24;;;;;;;2.40;2.30;;;;;;;20.10;99.37;100191.06;5051800;28;20943;-48
2022/06/05 04:43:52;;;;;;;1.07;1.07;;;;;;;20.06;100.00;100199.47;5052178;28;20824;-47
2022/06/05 04:46:21;;;;;;;0.40;0.30;;;;;;;20.08;100.00;100186.75;5053202;22;20527;-54
2022/06/05 04:48:48;;;;;;;1.10;1.10;;;;;;;20.10;100.00;100191.06;5032600;28;20455;-54
2022/06/05 04:51:18;;;;;;;0.60;0.50;;;;;;;20.06;100.00;100188.69;5028095;28;20456;-56
2022/06/05 04:53:45;;;;;;;0.60;0.57;;;;;;;19.88;100.00;100190.84;5026617;28;20967;-55
2022/06/05 04:56:16;;;;;;;0.50;0.50;;;;;;;19.94;100.00;100186.84;5028864;28;20550;-55
2022/06/05 04:58:43;;;;;;;0.40;0.30;;;;;;;19.99;100.00;100182.84;5012665;28;20491;-54
2022/06/05 05:01:17;;;;;;;0.77;0.77;;;;;;;19.93;100.00;100180.56;5019170;28;20897;-54
2022/06/05 05:03:44;;;;;;;0.50;0.50;;;;;;;20.03;100.00;100180.81;5021268;28;20510;-54
2022/06/05 05:06:12;;;;;;;0.40;0.30;;;;;;;19.44;100.00;100175.78;5025619;28;20495;-54
2022/06/05 05:08:38;;;;;;;0.70;0.40;;;;;;;19.29;100.00;100170.53;5020965;28;20437;-55
2022/06/05 05:11:06;;;;;;;0.47;0.33;;;;;;;19.45;100.00;100165.84;4994619;28;20441;-55
2022/06/05 05:13:32;;;;;;;1.30;0.53;;;;;;;19.40;100.00;100157.22;5020704;28;20456;-55
2022/06/05 05:15:59;;;;;;;1.50;1.07;;;;;;;19.31;100.00;100147.03;5025600;28;20523;-55
2022/06/05 05:18:26;;;;;;;0.40;0.30;;;;;;;19.04;100.00;100137.13;5024395;28;21123;-55
2022/06/05 05:20:53;;;;;;;0.50;0.40;;;;;;;19.10;100.00;100130.50;5012064;28;20502;-55
2022/06/05 05:23:19;;;;;;;0.40;0.20;;;;;;;18.72;100.00;100119.53;5006765;28;20502;-56
2022/06/05 05:25:47;;;;;;;0.63;0.63;;;;;;;18.86;100.00;100109.59;5024241;28;20534;-56
2022/06/05 05:28:15;;;;;;;0.40;0.20;;;;;;;18.77;100.00;100096.72;5017734;28;20472;-55
2022/06/05 05:30:44;;;;;;;2.40;2.20;;;;;;;19.04;100.00;100109.31;5025618;28;20460;-55
2022/06/05 05:33:12;;;;;;;0.50;0.43;;;;;;;19.15;100.00;100102.25;5025042;28;20948;-55
2022/06/05 05:35:40;;;;;;;1.37;1.33;;;;;;;19.27;100.00;100087.09;4993133;28;20888;-55
2022/06/05 05:38:07;;;;;;;0.40;0.30;;;;;;;18.72;100.00;100074.63;5018745;28;20491;-55
2022/06/05 05:43:19;;;;;;;1.90;1.27;;;;;;;18.82;100.00;100080.28;5017829;28;20464;-55
2022/06/05 05:45:46;;;;;;;0.50;0.50;;;;;;;18.65;100.00;100076.00;5013148;28;20492;-55
2022/06/05 05:48:13;;;;;;;0.53;0.53;;;;;;;18.68;100.00;100073.09;5025109;28;20452;-55
2022/06/05 05:50:43;;;;;;;0.50;0.47;;;;;;;18.81;100.00;100065.09;5022730;28;20506;-56
2022/06/05 05:53:10;;;;;;;0.40;0.20;;;;;;;19.08;100.00;100060.53;4995116;28;20455;-56
2022/06/05 05:55:37;;;;;;;0.40;0.40;;;;;;;18.85;100.00;100042.34;5027006;28;20541;-56
2022/06/05 05:58:03;;;;;;;2.47;2.37;;;;;;;18.84;100.00;100021.78;5006894;28;20455;-56
2022/06/05 06:00:30;;;;;;;0.70;0.70;;;;;;;18.91;100.00;100010.50;5015010;28;20561;-55
2022/06/05 06:02:57;;;;;;;0.50;0.40;;;;;;;18.84;100.00;99994.84;5022572;28;20956;-55
2022/06/05 06:05:27;;;;;;;1.50;1.50;;;;;;;18.81;100.00;99982.44;5020288;28;20519;-55
2022/06/05 06:07:54;;;;;;;1.20;0.90;;;;;;;18.86;100.00;99980.28;5016547;28;20932;-55
2022/06/05 06:10:21;;;;;;;0.60;0.60;;;;;;;18.74;100.00;99977.56;5009480;28;20452;-55
2022/06/05 06:12:47;;;;;;;0.50;0.50;;;;;;;18.64;100.00;99975.50;5024110;28;20464;-55
2022/06/05 06:15:14;;;;;;;0.40;0.30;;;;;;;18.81;100.00;99998.63;5020293;28;20480;-55
2022/06/05 06:17:41;;;;;;;1.73;0.67;;;;;;;18.94;100.00;99991.44;5018333;28;20512;-55
2022/06/05 06:20:08;;;;;;;0.40;0.27;;;;;;;18.97;100.00;99976.88;5019222;28;20558;-55
2022/06/05 06:22:35;;;;;;;8.43;1.00;;;;;;;19.00;100.00;99982.06;5020559;28;20456;-55
2022/06/05 06:25:05;;;;;;;0.50;0.30;;;;;;;19.14;100.00;99978.41;5018798;28;20551;-55
2022/06/05 06:27:32;;;;;;;0.40;0.20;;;;;;;19.10;100.00;99977.78;5024534;28;20866;-55
2022/06/05 06:29:58;;;;;;;0.40;0.20;;;;;;;19.21;100.00;99966.25;5019586;28;20472;-55
2022/06/05 06:32:25;;;;;;;1.17;1.07;;;;;;;19.22;100.00;99976.94;5017936;28;20451;-54
2022/06/05 06:34:52;;;;;;;0.50;0.30;;;;;;;19.24;100.00;99974.13;5021508;28;20456;-55
2022/06/05 06:37:20;;;;;;;0.50;0.50;;;;;;;19.24;100.00;99976.81;5020475;28;20456;-55
2022/06/05 06:39:47;;;;;;;0.50;0.40;;;;;;;19.28;100.00;99980.16;5019240;28;20488;-54
2022/06/05 06:42:13;;;;;;;0.40;0.30;;;;;;;19.15;100.00;99981.00;5034124;28;20522;-55
2022/06/05 06:44:40;;;;;;;0.50;0.33;;;;;;;19.33;100.00;99980.72;5022826;28;20454;-55
2022/06/05 06:47:06;;;;;;;1.03;1.03;;;;;;;19.37;100.00;99974.13;5027838;28;20460;-55
2022/06/05 06:49:35;;;;;;;0.40;0.30;;;;;;;19.33;100.00;99965.41;5016380;28;20480;-55
2022/06/05 06:52:02;;;;;;;0.40;0.30;;;;;;;19.32;100.00;99963.66;4993163;28;20463;-55
2022/06/05 06:54:29;;;;;;;0.40;0.30;;;;;;;19.41;100.00;99954.06;5024477;28;20451;-55
2022/06/05 06:56:55;;;;;;;0.50;0.30;;;;;;;19.32;100.00;99943.91;4993557;28;20475;-55
2022/06/05 06:59:23;;;;;;;0.83;0.83;;;;;;;19.61;100.00;99942.78;5007387;28;20559;-55
2022/06/05 07:01:50;;;;;;;0.60;0.53;;;;;;;19.82;100.00;99948.44;5022722;28;20454;-55
2022/06/05 07:04:17;;;;;;;13.10;1.47;;;;;;;19.86;100.00;99963.44;5021299;28;20510;-55
2022/06/05 07:06:43;;;;;;;0.53;0.53;;;;;;;20.00;100.00;99960.59;5026441;28;20476;-55
2022/06/05 07:09:13;;;;;;;0.47;0.40;;;;;;;20.16;100.00;99949.56;5027779;28;20444;-55
2022/06/05 07:11:41;;;;;;;0.50;0.50;;;;;;;20.26;100.00;99947.03;5023277;28;20452;-55
2022/06/05 07:14:09;;;;;;;1.57;1.50;;;;;;;20.09;100.00;99943.72;5021238;28;20453;-55
2022/06/05 07:16:36;;;;;;;2.93;1.90;;;;;;;20.17;100.00;99947.72;5025134;28;20540;-55
2022/06/05 07:19:03;;;;;;;1.10;1.10;;;;;;;19.96;100.00;99944.75;5027647;28;20896;-55
2022/06/05 07:21:30;;;;;;;0.50;0.40;;;;;;;20.08;100.00;99950.09;5024056;28;20452;-55
2022/06/05 07:23:58;;;;;;;0.50;0.40;;;;;;;20.00;100.00;99965.13;5020672;28;20448;-56
2022/06/05 07:26:28;;;;;;;1.57;1.07;;;;;;;20.13;100.00;99982.16;5024444;28;20539;-55
2022/06/05 07:28:56;;;;;;;1.73;0.77;;;;;;;20.12;100.00;99988.53;5010077;28;20445;-56
2022/06/05 07:31:24;;;;;;;0.50;0.40;;;;;;;20.15;100.00;99977.53;5024946;28;20447;-56
2022/06/05 07:33:51;;;;;;;0.50;0.30;;;;;;;20.38;100.00;99983.91;5020629;28;20483;-56
2022/06/05 07:36:20;;;;;;;1.13;1.13;;;;;;;20.29;100.00;99987.31;5010350;28;20485;-56
2022/06/05 07:38:48;;;;;;;0.40;0.20;;;;;;;20.64;100.00;99990.09;5008816;28;20491;-55
2022/06/05 07:41:27;;;;;;;0.73;0.73;;;;;;;20.66;100.00;100007.91;5026687;28;21117;-56
2022/06/05 07:43:54;;;;;;;0.50;0.40;;;;;;;20.60;100.00;99999.44;5024752;28;20487;-56
2022/06/05 07:46:22;;;;;;;0.50;0.40;;;;;;;20.47;100.00;99987.81;5026897;28;20503;-56
2022/06/05 07:48:49;;;;;;;0.50;0.30;;;;;;;20.45;100.00;100003.28;5022086;28;20796;-56
2022/06/05 07:54:27;;;;;;;0.40;0.30;;;;;;;20.60;100.00;100021.03;5021070;28;20479;-56
2022/06/05 07:56:56;;;;;;;0.50;0.50;;;;;;;20.70;100.00;100022.94;5025450;28;20468;-58
2022/06/05 07:59:25;;;;;;;0.50;0.30;;;;;;;20.79;100.00;100010.56;5026960;28;20561;-55
2022/06/05 08:01:56;;;;;;;1.27;0.83;;;;;;;20.67;100.00;100006.06;5022650;28;20546;-58
2022/06/05 08:04:24;;;;;;;0.47;0.37;;;;;;;20.58;100.00;100012.19;5019888;28;21133;-55
2022/06/05 08:06:53;;;;;;;0.50;0.40;;;;;;;20.57;100.00;100007.75;5023505;28;20544;-55
2022/06/05 08:09:20;;;;;;;1.43;1.30;;;;;;;20.67;100.00;100001.53;5026794;28;20503;-55
2022/06/05 08:11:46;;;;;;;1.03;1.03;;;;;;;20.59;100.00;99993.16;5023452;28;20503;-55
2022/06/05 08:14:14;;;;;;;0.73;0.70;;;;;;;20.76;100.00;99993.72;5019590;28;20904;-55
2022/06/05 08:16:46;;;;;;;0.50;0.40;;;;;;;20.89;100.00;99997.22;5023064;28;20494;-55
2022/06/05 08:19:16;;;;;;;1.33;1.33;;;;;;;20.84;100.00;99983.22;5026626;28;20496;-55
2022/06/05 08:21:43;;;;;;;3.27;3.17;;;;;;;20.76;100.00;99991.88;5025164;28;20498;-55
2022/06/05 08:24:10;;;;;;;1.80;0.60;;;;;;;20.79;100.00;99994.34;5019389;28;20452;-55
2022/06/05 08:26:37;;;;;;;0.73;0.73;;;;;;;20.73;100.00;99994.81;5021319;28;20551;-55
2022/06/05 08:29:04;;;;;;;1.40;1.33;;;;;;;20.81;100.00;99991.53;5026597;28;20445;-55
2022/06/05 08:31:33;;;;;;;0.50;0.40;;;;;;;20.57;100.00;99981.63;5025436;28;20529;-55
2022/06/05 08:34:01;;;;;;;2.10;1.10;;;;;;;20.73;100.00;99989.44;5019678;28;20831;-55
2022/06/05 08:36:29;;;;;;;0.67;0.67;;;;;;;20.90;100.00;99990.84;5006619;28;20474;-55
2022/06/05 08:42:16;;;;;;;0.40;0.30;;;;;;;20.95;100.00;99991.34;5011238;28;20528;-55
2022/06/05 08:45:14;;;;;;;0.87;0.40;;;;;;;21.02;100.00;99989.91;5025790;28;20455;-55
2022/06/05 08:47:54;;;;;;;0.40;0.30;;;;;;;21.02;100.00;99994.44;5019489;28;20460;-55
2022/06/05 08:50:46;;;;;;;0.70;0.70;;;;;;;21.40;100.00;99991.53;5007913;28;20921;-55
2022/06/05 08:53:30;;;;;;;0.47;0.33;;;;;;;21.32;100.00;99991.25;5009533;28;20464;-55
2022/06/05 08:55:59;;;;;;;0.40;0.27;;;;;;;21.35;100.00;100004.53;5018977;28;20464;-55
2022/06/05 08:58:32;;;;;;;2.63;2.50;;;;;;;21.14;100.00;100002.47;5006912;28;20452;-55
2022/06/05 09:01:05;;;;;;;0.50;0.40;;;;;;;21.22;100.00;99996.47;5019549;28;20496;-55
2022/06/05 09:03:43;;;;;;;0.50;0.43;;;;;;;21.17;100.00;99998.69;5005977;28;20539;-55
2022/06/05 09:06:34;;;;;;;2.70;1.60;;;;;;;21.10;100.00;99997.41;5026103;28;20472;-55
2022/06/05 09:09:06;;;;;;;0.77;0.77;;;;;;;21.04;100.00;99992.50;5025923;28;20444;-55
2022/06/05 09:11:44;;;;;;;0.50;0.43;;;;;;;21.29;100.00;99989.66;5020550;28;20456;-55
2022/06/05 09:14:29;;;;;;;0.50;0.30;;;;;;;21.34;100.00;99989.28;5019377;28;20858;-55
2022/06/05 09:17:03;;;;;;;0.40;0.30;;;;;;;21.75;100.00;99988.72;5019973;28;20989;-55
2022/06/05 09:19:36;;;;;;;0.77;0.70;;;;;;;21.49;100.00;99982.66;5008101;28;20548;-55
2022/06/05 09:22:42;;;;;;;0.50;0.40;;;;;;;21.23;100.00;99979.25;5018698;28;20495;-56
2022/06/05 09:25:08;;;;;;;2.20;1.33;;;;;;;21.14;100.00;99980.00;5019122;28;20465;-56
2022/06/05 09:27:41;;;;;;;0.40;0.20;;;;;;;21.77;100.00;99984.03;5025452;28;20500;-55
2022/06/05 09:30:20;;;;;;;0.40;0.30;;;;;;;20.88;100.00;99980.16;5025408;28;20447;-55
2022/06/05 09:33:08;;;;;;;1.40;1.40;;;;;;;20.98;100.00;99983.03;5021565;28;20851;-55
2022/06/05 09:35:53;;;;;;;1.43;1.13;;;;;;;21.16;100.00;99964.50;5013252;28;20518;-55
2022/06/05 09:38:57;;;;;;;0.77;0.77;;;;;;;20.96;100.00;99964.19;5025215;28;20546;-55
2022/06/05 09:41:54;;;;;;;2.10;1.27;;;;;;;20.81;100.00;99959.09;5024954;28;20459;-55
2022/06/05 09:44:45;;;;;;;0.50;0.47;;;;;;;20.75;100.00;99956.88;5020731;28;20444;-55
2022/06/05 09:48:14;;;;;;;0.83;0.83;;;;;;;21.00;100.00;99957.59;5008901;28;20452;-55
2022/06/05 09:50:41;;;;;;;0.50;0.40;;;;;;;20.63;100.00;99961.38;4941087;28;20449;-56
2022/06/05 09:53:18;;;;;;;1.07;0.60;;;;;;;20.90;100.00;99951.16;5022569;28;20460;-55
2022/06/05 09:55:59;;;;;;;0.53;0.53;;;;;;;20.64;100.00;99939.66;5024046;28;20980;-56
2022/06/05 09:58:27;;;;;;;0.40;0.30;;;;;;;20.99;100.00;99941.50;5007746;28;20948;-55
2022/06/05 10:00:56;;;;;;;1.17;1.07;;;;;;;20.91;100.00;99939.38;5018626;28;20535;-55
2022/06/05 10:03:40;;;;;;;0.87;0.87;;;;;;;21.11;100.00;99923.47;5023403;28;20488;-55
2022/06/05 10:06:29;;;;;;;0.90;0.90;;;;;;;21.10;100.00;99919.03;5025267;28;20503;-55
2022/06/05 10:09:01;;;;;;;0.70;0.70;;;;;;;20.80;100.00;99917.72;5029255;28;20471;-55
2022/06/05 10:11:39;;;;;;;0.40;0.30;;;;;;;21.08;100.00;99907.47;5023872;28;20451;-55
2022/06/05 10:14:19;;;;;;;1.80;1.70;;;;;;;21.12;100.00;99917.94;5022217;28;20505;-56
2022/06/05 10:16:50;;;;;;;0.50;0.30;;;;;;;21.26;100.00;99931.28;5023942;28;20476;-55
2022/06/05 10:19:40;;;;;;;0.40;0.30;;;;;;;21.21;100.00;99925.31;5028625;28;20898;-55
2022/06/05 10:22:29;;;;;;;6.43;1.43;;;;;;;21.47;100.00;99922.44;5028838;28;20448;-55
2022/06/05 10:25:17;;;;;;;0.60;0.53;;;;;;;21.37;100.00;99921.44;5027969;28;20521;-55
2022/06/05 10:27:53;;;;;;;0.87;0.87;;;;;;;21.61;100.00;99929.44;5012316;28;20529;-55
2022/06/05 10:30:26;;;;;;;0.60;0.60;;;;;;;21.54;100.00;99927.25;5021855;28;20471;-55
2022/06/05 10:33:13;;;;;;;1.03;1.03;;;;;;;21.49;100.00;99944.81;5024820;28;20503;-55
2022/06/05 10:35:59;;;;;;;0.50;0.40;;;;;;;21.93;100.00;99943.97;5004870;28;20531;-55
2022/06/05 10:38:41;;;;;;;0.93;0.93;;;;;;;21.53;100.00;99944.47;5024811;28;20855;-55
2022/06/05 10:41:24;;;;;;;1.90;0.60;;;;;;;21.65;100.00;99937.19;5026991;28;20569;-55
2022/06/05 10:44:21;;;;;;;0.40;0.30;;;;;;;21.64;100.00;99929.19;5027774;28;20491;-56
2022/06/05 10:47:06;;;;;;;1.20;1.20;;;;;;;21.58;100.00;99926.00;5034724;23;20469;-49
2022/06/05 10:49:58;;;;;;;6.33;0.60;;;;;;;21.52;100.00;99917.53;5041429;28;20428;-50
2022/06/05 10:52:36;;;;;;;0.53;0.53;;;;;;;21.85;100.00;99912.09;5043218;28;20455;-50
2022/06/05 10:55:19;;;;;;;1.70;0.93;;;;;;;22.04;100.00;99907.88;5048148;28;20451;-50
2022/06/05 10:58:18;;;;;;;0.50;0.50;;;;;;;22.21;100.00;99907.38;5034823;28;20447;-49
2022/06/05 11:01:19;;;;;;;0.50;0.50;;;;;;;22.25;100.00;99910.69;5035148;28;21069;-50
2022/06/05 11:04:16;;;;;;;0.40;0.30;;;;;;;21.94;100.00;99910.50;5007563;28;20463;-50
2022/06/05 11:06:51;;;;;;;1.00;1.00;;;;;;;22.12;100.00;99910.84;5016512;28;20462;-50
2022/06/05 11:09:28;;;;;;;0.50;0.50;;;;;;;22.11;100.00;99917.25;5027010;28;20491;-49
2022/06/05 11:15:11;;;;;;;1.43;1.40;;;;;;;22.64;100.00;99906.50;5009809;28;20456;-50
2022/06/05 11:17:52;;;;;;;0.60;0.60;;;;;;;22.36;100.00;99903.41;5006326;28;20476;-50
2022/06/05 11:20:23;;;;;;;0.80;0.80;;;;;;;22.23;100.00;99912.69;5003593;28;20921;-50
2022/06/05 11:23:01;;;;;;;0.93;0.93;;;;;;;21.84;100.00;99901.41;5023252;28;20822;-50
2022/06/05 11:25:33;;;;;;;1.17;1.17;;;;;;;21.98;100.00;99911.09;5026120;28;20529;-50
2022/06/05 11:28:45;;;;;;;3.07;0.77;;;;;;;22.13;100.00;99913.44;5031246;28;20518;-50
2022/06/05 11:31:23;;;;;;;0.50;0.50;;;;;;;22.11;100.00;99901.00;4996312;28;20454;-50
2022/06/05 11:33:55;;;;;;;2.40;1.13;;;;;;;22.16;100.00;99896.06;5012090;28;20459;-50
2022/06/05 11:36:33;;;;;;;0.50;0.50;;;;;;;22.17;100.00;99895.94;5003168;28;20841;-49
2022/06/05 11:39:27;;;;;;;0.50;0.43;;;;;;;22.29;100.00;99882.38;5012904;28;20455;-49
2022/06/05 11:42:21;;;;;;;0.50;0.50;;;;;;;22.25;100.00;99884.47;5025376;28;20462;-49
2022/06/05 11:45:08;;;;;;;1.27;1.27;;;;;;;22.62;100.00;99887.66;5009867;28;20453;-50
2022/06/05 11:48:03;;;;;;;1.03;0.93;;;;;;;22.22;100.00;99900.13;5012215;28;20484;-50
2022/06/05 11:50:52;;;;;;;0.50;0.50;;;;;;;22.54;100.00;99897.41;5017312;28;20992;-50
2022/06/05 11:53:30;;;;;;;0.97;0.70;;;;;;;22.25;100.00;99902.56;5023306;28;20517;-49
2022/06/05 11:56:18;;;;;;;0.50;0.50;;;;;;;22.45;100.00;99899.91;5011807;28;20505;-48
2022/06/05 11:58:54;;;;;;;1.30;0.83;;;;;;;22.40;100.00;99891.31;5014458;28;20452;-50
2022/06/05 12:01:26;;;;;;;1.60;0.60;;;;;;;22.65;100.00;99890.09;5034369;28;20549;-49
2022/06/05 12:04:31;;;;;;;0.50;0.40;;;;;;;22.85;100.00;99885.69;5033673;28;20448;-49
2022/06/05 12:07:00;;;;;;;0.40;0.30;;;;;;;22.50;100.00;99875.16;4958228;28;20469;-49
2022/06/05 12:09:45;;;;;;;0.57;0.57;;;;;;;22.50;100.00;99880.56;5030445;28;20948;-50
2022/06/05 12:12:17;;;;;;;0.50;0.50;;;;;;;22.22;100.00;99875.75;5022706;28;20506;-50